Time;durP1;ratioP1;P1;durP2;ratioP2;P2;SDS_P1;SDS_P2;PMS_P1;PMS_P2;Temp;Humidity;BMP_temperature;BMP_pressure;BME280_temperature;BME280_humidity;BME280_pressure;Samples;Min_cycle;Max_cycle;Signal;HPM_P1;HPM_P2
2022/10/01 00:00:00;;;;;;;17.35;7.55;;;;;;;16.63;67.35;95045.63;4176681;28;20057;-60
2022/10/01 00:02:01;;;;;;;13.10;7.38;;;;;;;16.60;67.74;95051.25;4162409;28;20164;-59
2022/10/01 00:04:03;;;;;;;11.27;6.72;;;;;;;16.64;67.85;95060.47;4170461;28;20452;-59
2022/10/01 00:06:07;;;;;;;15.30;6.97;;;;;;;16.71;67.72;95061.38;4166445;28;20076;-58
2022/10/01 00:08:10;;;;;;;11.02;7.25;;;;;;;16.76;67.28;95063.44;4164089;28;20077;-59
2022/10/01 00:10:13;;;;;;;16.17;7.95;;;;;;;16.83;66.60;95059.06;4175921;28;20055;-58
2022/10/01 00:12:15;;;;;;;19.38;7.95;;;;;;;16.84;67.15;95065.16;4171400;28;20538;-58
2022/10/01 00:14:17;;;;;;;13.70;7.32;;;;;;;16.91;67.07;95058.13;4179948;28;20138;-59
2022/10/01 00:16:22;;;;;;;11.05;7.75;;;;;;;16.96;66.72;95059.19;4177921;28;20065;-60
2022/10/01 00:18:23;;;;;;;11.60;7.43;;;;;;;16.96;66.72;95051.25;4180152;28;20084;-58
2022/10/01 00:20:25;;;;;;;13.82;7.25;;;;;;;16.90;67.07;95048.53;4179837;28;20071;-59
2022/10/01 00:22:31;;;;;;;12.40;7.80;;;;;;;16.85;67.07;95057.06;4179853;28;20041;-59
2022/10/01 00:24:32;;;;;;;15.15;7.50;;;;;;;16.83;67.00;95048.47;4165841;28;20050;-58
2022/10/01 00:26:36;;;;;;;14.48;6.72;;;;;;;16.57;67.50;95049.00;4179387;28;20063;-60
2022/10/01 00:28:37;;;;;;;12.88;6.45;;;;;;;16.52;68.00;95056.66;4172292;28;20053;-59
2022/10/01 00:30:45;;;;;;;11.25;6.32;;;;;;;16.52;67.93;95046.09;4161905;28;20054;-59
2022/10/01 00:32:47;;;;;;;9.13;6.00;;;;;;;16.43;67.59;95044.56;4162706;28;20791;-57
2022/10/01 00:34:49;;;;;;;10.60;5.75;;;;;;;16.16;68.31;95054.84;4168962;28;20072;-60
2022/10/01 00:36:50;;;;;;;8.73;5.63;;;;;;;15.97;69.03;95053.59;4171242;28;20049;-59
2022/10/01 00:38:52;;;;;;;10.85;6.15;;;;;;;16.02;69.45;95045.09;4163580;28;20136;-61
2022/10/01 00:40:54;;;;;;;12.57;6.85;;;;;;;16.12;69.29;95043.00;4162978;28;20410;-58
2022/10/01 00:42:56;;;;;;;8.80;6.60;;;;;;;16.27;68.63;95043.78;4163335;28;20056;-59
2022/10/01 00:45:00;;;;;;;12.50;6.35;;;;;;;16.34;68.74;95042.03;4163027;28;20513;-61
2022/10/01 00:47:30;;;;;;;11.77;6.88;;;;;;;16.44;68.40;95043.59;4162021;28;20056;-61
2022/10/01 00:49:33;;;;;;;11.60;7.43;;;;;;;16.50;68.13;95038.38;4166834;28;20124;-60
2022/10/01 00:51:41;;;;;;;14.68;7.80;;;;;;;16.56;67.66;95036.78;4162359;28;20049;-59
2022/10/01 00:53:43;;;;;;;13.52;6.68;;;;;;;16.49;67.43;95038.53;4162982;28;20080;-59
2022/10/01 00:55:54;;;;;;;12.23;6.60;;;;;;;16.41;68.06;95049.22;4150238;28;20049;-58
2022/10/01 00:57:56;;;;;;;14.93;6.53;;;;;;;16.42;67.96;95048.22;4171735;28;20045;-59
2022/10/01 01:00:03;;;;;;;10.07;6.13;;;;;;;16.43;67.62;95047.22;4176815;28;20045;-58
2022/10/01 01:02:04;;;;;;;12.93;7.10;;;;;;;16.42;67.62;95051.69;4173918;28;20056;-59
2022/10/01 01:04:15;;;;;;;11.88;6.63;;;;;;;16.35;67.92;95043.69;4169632;28;20517;-56
2022/10/01 01:06:17;;;;;;;17.85;6.55;;;;;;;16.13;68.70;95044.63;4169911;28;20504;-59
2022/10/01 01:08:19;;;;;;;8.05;6.35;;;;;;;16.06;69.15;95033.16;4169137;28;20114;-59
2022/10/01 01:10:32;;;;;;;8.85;6.10;;;;;;;15.88;69.42;95033.56;4170868;28;20052;-58
2022/10/01 01:12:49;;;;;;;12.10;6.85;;;;;;;15.83;70.06;95030.63;4176933;28;20151;-59
2022/10/01 01:15:14;;;;;;;11.25;6.40;;;;;;;15.74;70.01;95022.81;4174413;28;20053;-59
2022/10/01 01:17:23;;;;;;;9.65;6.82;;;;;;;15.55;71.08;95015.41;4167756;28;20050;-59
2022/10/01 01:19:34;;;;;;;12.95;6.80;;;;;;;15.64;71.11;95029.31;4175119;28;20077;-59
2022/10/01 01:21:41;;;;;;;11.55;6.50;;;;;;;15.77;70.72;95027.72;4169512;28;20140;-58
2022/10/01 01:24:03;;;;;;;10.02;6.20;;;;;;;15.93;70.07;95032.00;4177687;28;20053;-60
2022/10/01 01:26:28;;;;;;;13.40;7.10;;;;;;;15.82;70.34;95021.91;4174853;28;20489;-58
2022/10/01 01:28:32;;;;;;;8.48;6.60;;;;;;;15.84;70.41;95037.56;4174127;28;20466;-61
2022/10/01 01:30:37;;;;;;;11.10;7.30;;;;;;;15.90;70.18;95035.00;4165813;28;20486;-59
2022/10/01 01:33:01;;;;;;;9.60;6.43;;;;;;;15.97;69.69;95029.81;4154703;28;20080;-60
2022/10/01 01:35:06;;;;;;;9.13;6.47;;;;;;;15.97;69.74;95027.97;4175195;28;20472;-58
2022/10/01 01:37:11;;;;;;;13.60;6.78;;;;;;;16.00;69.33;95039.19;4168118;28;20061;-60
2022/10/01 01:39:15;;;;;;;11.43;6.68;;;;;;;15.71;70.02;95033.75;4168523;28;20660;-58
2022/10/01 01:41:19;;;;;;;10.35;6.60;;;;;;;15.55;70.83;95036.53;4174214;28;20072;-58
2022/10/01 01:43:28;;;;;;;10.07;7.15;;;;;;;15.65;70.83;95029.16;4177317;28;20072;-59
2022/10/01 01:45:32;;;;;;;12.13;7.10;;;;;;;15.75;70.43;95032.38;4168795;28;20147;-59
2022/10/01 01:47:37;;;;;;;10.63;6.80;;;;;;;15.88;69.95;95036.22;4177545;28;20055;-60
2022/10/01 01:49:40;;;;;;;11.45;7.13;;;;;;;15.94;69.72;95044.22;4173131;28;20132;-58
2022/10/01 01:52:03;;;;;;;12.70;7.30;;;;;;;16.02;69.08;95039.81;4177292;28;20136;-59
2022/10/01 01:54:05;;;;;;;8.25;7.00;;;;;;;16.06;69.23;95051.66;4173851;28;20673;-58
2022/10/01 01:56:06;;;;;;;8.00;7.05;;;;;;;16.06;68.92;95035.81;4169615;28;20047;-59
2022/10/01 01:58:08;;;;;;;12.48;6.55;;;;;;;16.10;69.32;95031.78;4177143;28;20135;-57
2022/10/01 02:00:11;;;;;;;8.88;7.07;;;;;;;16.05;68.99;95039.47;4177200;28;20144;-60
2022/10/01 02:02:28;;;;;;;9.85;6.50;;;;;;;16.07;69.04;95038.28;4165082;28;20056;-60
2022/10/01 02:04:44;;;;;;;10.43;7.25;;;;;;;15.81;69.13;95038.75;4175625;28;20061;-58
2022/10/01 02:06:57;;;;;;;12.27;7.18;;;;;;;15.68;69.99;95063.13;4167411;28;20589;-59
2022/10/01 02:09:10;;;;;;;12.75;7.63;;;;;;;15.70;70.09;95066.41;4163252;28;20567;-61
2022/10/01 02:11:20;;;;;;;10.98;7.70;;;;;;;15.76;69.53;95056.97;4165198;28;20056;-58
2022/10/01 02:13:28;;;;;;;12.50;7.30;;;;;;;15.72;69.37;95063.59;4167137;28;20375;-57
2022/10/01 02:15:35;;;;;;;11.40;7.38;;;;;;;15.46;70.42;95058.72;4174000;28;20215;-59
2022/10/01 02:17:51;;;;;;;12.68;8.10;;;;;;;15.44;70.84;95058.91;4175088;28;20151;-61
2022/10/01 02:19:54;;;;;;;12.00;7.35;;;;;;;15.53;70.32;95060.47;4164201;28;20041;-59
2022/10/01 02:22:00;;;;;;;;;;;;;;;15.55;69.97;95057.63;4178601;28;20049;-59
2022/10/01 02:24:25;;;;;;;12.05;6.55;;;;;;;15.50;70.05;95068.75;4177739;28;19974;-59
2022/10/01 02:26:28;;;;;;;13.90;5.82;;;;;;;15.59;70.01;95052.81;4175803;28;20060;-59
2022/10/01 02:28:32;;;;;;;9.55;6.55;;;;;;;15.64;69.67;95066.28;4176712;28;20703;-64
2022/10/01 02:30:34;;;;;;;8.02;7.15;;;;;;;15.67;69.59;95069.41;4175883;28;20084;-59
2022/10/01 02:32:38;;;;;;;10.60;6.40;;;;;;;15.73;69.57;95058.16;4176644;28;20100;-58
2022/10/01 02:34:41;;;;;;;9.40;6.15;;;;;;;15.79;69.29;95064.53;4176933;28;20053;-60
2022/10/01 02:36:44;;;;;;;10.10;5.10;;;;;;;15.83;69.01;95062.34;4162982;28;20107;-58
2022/10/01 02:38:46;;;;;;;7.43;5.20;;;;;;;15.88;68.58;95068.72;4162278;28;20572;-58
2022/10/01 02:40:52;;;;;;;10.73;6.20;;;;;;;15.94;68.68;95069.81;4171572;28;20037;-60
2022/10/01 02:42:57;;;;;;;9.27;5.70;;;;;;;16.03;68.70;95076.66;4170149;28;20052;-66
2022/10/01 02:45:02;;;;;;;8.18;6.20;;;;;;;16.06;68.51;95070.16;4176497;28;20139;-66
2022/10/01 02:47:17;;;;;;;9.63;6.07;;;;;;;15.97;68.55;95070.25;4172885;28;20127;-67
2022/10/01 02:49:19;;;;;;;10.68;5.70;;;;;;;16.00;68.80;95069.06;4169668;28;20053;-68
2022/10/01 02:51:40;;;;;;;11.63;6.15;;;;;;;16.03;68.80;95081.13;4165433;28;20141;-66
2022/10/01 02:53:48;;;;;;;11.68;6.50;;;;;;;16.08;68.74;95086.66;4164449;28;20135;-63
2022/10/01 02:55:50;;;;;;;10.30;6.22;;;;;;;15.91;68.77;95083.38;4177228;28;20081;-65
2022/10/01 02:57:52;;;;;;;12.32;5.88;;;;;;;15.85;69.31;95087.59;4175030;28;20135;-65
2022/10/01 03:00:07;;;;;;;11.40;6.18;;;;;;;15.84;69.51;95082.47;4177641;28;20124;-65
2022/10/01 03:02:09;;;;;;;9.45;6.00;;;;;;;15.88;69.69;95081.13;4179766;28;20080;-64
2022/10/01 03:04:12;;;;;;;11.25;5.97;;;;;;;15.79;69.87;95079.53;4170576;28;20046;-65
2022/10/01 03:06:13;;;;;;;13.38;9.93;;;;;;;15.80;70.08;95084.66;4171096;28;20047;-66
2022/10/01 03:08:15;;;;;;;9.52;7.35;;;;;;;15.86;70.20;95080.47;4173001;28;20477;-65
2022/10/01 03:10:17;;;;;;;12.80;5.43;;;;;;;15.94;69.49;95070.63;4174618;28;20049;-65
2022/10/01 03:12:19;;;;;;;12.00;6.80;;;;;;;16.01;69.47;95075.19;4178761;28;20076;-65
2022/10/01 03:14:20;;;;;;;10.73;6.20;;;;;;;16.07;69.27;95070.00;4171483;28;20052;-66
2022/10/01 03:16:22;;;;;;;9.13;6.22;;;;;;;16.13;69.33;95074.53;4171229;28;20050;-65
2022/10/01 03:18:24;;;;;;;12.82;6.28;;;;;;;16.06;69.23;95073.63;4178574;28;20697;-67
2022/10/01 03:20:26;;;;;;;10.88;6.43;;;;;;;16.05;69.40;95079.09;4175885;28;20596;-66
2022/10/01 03:22:28;;;;;;;10.95;6.57;;;;;;;16.04;69.38;95086.19;4180428;28;20512;-64
2022/10/01 03:24:29;;;;;;;12.13;6.82;;;;;;;15.71;70.38;95065.44;4175230;28;20061;-68
2022/10/01 03:26:31;;;;;;;9.63;6.30;;;;;;;15.51;71.10;95080.97;4167811;28;20128;-65
2022/10/01 03:28:33;;;;;;;16.25;6.68;;;;;;;15.54;71.27;95092.97;4180588;28;20607;-66
2022/10/01 03:30:35;;;;;;;13.55;6.80;;;;;;;15.58;71.15;95088.97;4177891;28;20068;-66
2022/10/01 03:32:37;;;;;;;6.90;5.93;;;;;;;15.47;71.22;95090.25;4179639;28;20111;-64
2022/10/01 03:34:39;;;;;;;12.40;6.43;;;;;;;15.50;71.44;95100.44;4178105;28;20504;-66
2022/10/01 03:36:40;;;;;;;10.40;6.22;;;;;;;15.61;71.15;95108.94;4166524;28;20077;-60
2022/10/01 03:38:42;;;;;;;17.65;6.45;;;;;;;15.70;70.39;95099.91;4163934;28;20055;-61
2022/10/01 03:40:45;;;;;;;8.98;6.10;;;;;;;15.41;71.41;95075.13;4178638;28;20133;-61
2022/10/01 03:42:46;;;;;;;16.20;6.70;;;;;;;15.41;71.64;95085.69;4175490;28;20152;-56
2022/10/01 03:44:48;;;;;;;12.25;6.28;;;;;;;15.49;71.53;95088.25;4175076;28;20053;-61
2022/10/01 03:46:50;;;;;;;7.43;5.93;;;;;;;15.55;71.69;95082.25;4168687;28;20080;-61
2022/10/01 03:48:52;;;;;;;13.18;6.85;;;;;;;15.65;71.36;95084.63;4180484;28;20131;-60
2022/10/01 03:50:55;;;;;;;11.13;7.47;;;;;;;15.70;70.96;95076.97;4176228;28;20115;-60
2022/10/01 03:52:58;;;;;;;10.77;6.80;;;;;;;15.80;70.32;95083.84;4162821;28;20080;-59
2022/10/01 03:54:59;;;;;;;11.30;6.60;;;;;;;15.84;69.93;95077.19;4171468;28;20049;-60
2022/10/01 03:57:01;;;;;;;11.43;7.32;;;;;;;15.88;70.18;95059.97;4180217;28;20715;-59
2022/10/01 03:59:03;;;;;;;13.82;7.93;;;;;;;15.60;70.95;95057.13;4173164;28;20045;-58
2022/10/01 04:01:05;;;;;;;13.68;7.53;;;;;;;15.50;71.44;95081.94;4178552;28;20051;-60
2022/10/01 04:03:07;;;;;;;14.75;7.45;;;;;;;15.40;71.80;95051.53;4179175;28;20482;-57
2022/10/01 04:05:09;;;;;;;12.52;7.28;;;;;;;15.06;73.12;95024.63;4176331;28;20051;-57
2022/10/01 04:07:10;;;;;;;15.52;7.43;;;;;;;15.06;73.41;95051.03;4176887;28;20417;-58
2022/10/01 04:09:12;;;;;;;13.05;7.18;;;;;;;15.15;73.54;95049.94;4167968;28;20072;-60
2022/10/01 04:11:14;;;;;;;19.25;7.60;;;;;;;15.13;73.51;95030.00;4171325;28;20449;-58
2022/10/01 04:13:15;;;;;;;9.93;7.38;;;;;;;15.13;73.35;95045.84;4179485;28;20095;-59
2022/10/01 04:15:17;;;;;;;10.30;6.97;;;;;;;15.18;73.15;95074.34;4178406;28;20053;-60
2022/10/01 04:17:19;;;;;;;13.52;7.35;;;;;;;15.29;72.80;95066.81;4180493;28;20051;-59
2022/10/01 04:19:21;;;;;;;12.32;8.07;;;;;;;15.28;72.72;95078.38;4180561;28;20049;-58
2022/10/01 04:21:22;;;;;;;15.77;7.75;;;;;;;15.36;72.64;95088.03;4179652;28;20406;-58
2022/10/01 04:23:24;;;;;;;10.07;6.75;;;;;;;15.47;72.39;95086.78;4180150;28;20516;-58
2022/10/01 04:25:27;;;;;;;9.20;7.03;;;;;;;15.50;71.88;95078.50;4179898;28;20651;-60
2022/10/01 04:27:29;;;;;;;13.07;7.82;;;;;;;15.56;72.04;95072.50;4178832;28;20127;-59
2022/10/01 04:29:30;;;;;;;10.65;7.28;;;;;;;15.56;71.89;95072.50;4177820;28;20052;-58
2022/10/01 04:31:35;;;;;;;11.88;7.38;;;;;;;15.60;71.69;95063.22;4166973;28;20529;-59
2022/10/01 04:33:37;;;;;;;10.15;6.95;;;;;;;15.59;71.71;95056.28;4173056;28;20089;-60
2022/10/01 04:35:40;;;;;;;10.65;8.00;;;;;;;15.47;72.00;95055.09;4179646;28;20103;-59
2022/10/01 04:37:41;;;;;;;12.73;7.60;;;;;;;15.49;72.30;95064.47;4176935;28;20081;-60
2022/10/01 04:39:43;;;;;;;16.20;7.68;;;;;;;15.61;72.25;95061.38;4174799;28;20053;-61
2022/10/01 04:41:45;;;;;;;15.07;7.82;;;;;;;15.72;71.58;95076.81;4179541;28;20088;-59
2022/10/01 04:43:47;;;;;;;14.43;7.13;;;;;;;15.64;71.87;95055.72;4179148;28;20466;-62
2022/10/01 04:45:48;;;;;;;13.05;7.82;;;;;;;15.62;71.85;95055.13;4176863;28;20100;-61
2022/10/01 04:47:52;;;;;;;14.15;7.25;;;;;;;15.63;71.94;95064.66;4179745;28;20128;-58
2022/10/01 04:49:54;;;;;;;14.63;7.20;;;;;;;15.73;71.56;95066.06;4179556;28;20137;-59
2022/10/01 04:51:56;;;;;;;12.63;7.15;;;;;;;15.82;71.02;95074.72;4178369;28;20060;-61
2022/10/01 04:53:57;;;;;;;16.83;8.02;;;;;;;15.86;70.27;95080.47;4179056;28;20094;-59
2022/10/01 04:55:59;;;;;;;9.80;7.15;;;;;;;15.84;70.28;95074.56;4177250;28;20064;-58
2022/10/01 04:58:01;;;;;;;16.15;7.70;;;;;;;15.83;70.20;95096.69;4177075;28;20135;-62
2022/10/01 05:00:05;;;;;;;11.10;7.25;;;;;;;15.68;70.81;95097.47;4178269;28;20088;-59
2022/10/01 05:02:06;;;;;;;10.88;7.50;;;;;;;15.71;70.51;95091.00;4178686;28;20124;-59
2022/10/01 05:04:08;;;;;;;14.55;7.88;;;;;;;15.47;71.72;95092.06;4179260;28;20076;-59
2022/10/01 05:06:10;;;;;;;14.68;7.32;;;;;;;15.43;71.71;95104.81;4177107;28;20045;-58
2022/10/01 05:08:12;;;;;;;9.05;7.20;;;;;;;15.54;71.59;95106.19;4172828;28;20428;-60
2022/10/01 05:10:16;;;;;;;12.10;7.22;;;;;;;15.69;71.32;95103.56;4173044;28;20036;-59
2022/10/01 05:12:18;;;;;;;15.90;7.93;;;;;;;15.80;70.44;95116.34;4169097;28;20052;-59
2022/10/01 05:14:25;;;;;;;14.63;7.72;;;;;;;15.92;70.29;95108.81;4168738;28;20057;-62
2022/10/01 05:16:27;;;;;;;9.75;6.78;;;;;;;16.01;69.54;95112.19;4167309;28;20049;-58
2022/10/01 05:18:29;;;;;;;12.43;7.55;;;;;;;16.12;69.35;95114.38;4170256;28;20123;-60
2022/10/01 05:20:32;;;;;;;12.98;7.68;;;;;;;16.16;68.39;95110.34;4172702;28;20055;-60
2022/10/01 05:22:34;;;;;;;13.95;7.97;;;;;;;16.24;68.65;95098.84;4174716;28;20187;-60
2022/10/01 05:24:36;;;;;;;11.88;7.15;;;;;;;16.31;68.00;95102.41;4167706;28;20054;-59
2022/10/01 05:26:38;;;;;;;13.30;6.97;;;;;;;16.40;68.15;95100.47;4172022;28;20733;-62
2022/10/01 05:28:43;;;;;;;9.93;6.80;;;;;;;16.53;68.00;95113.84;4179060;28;20135;-59
2022/10/01 05:30:45;;;;;;;15.02;7.75;;;;;;;16.53;67.95;95108.56;4176964;28;20631;-60
2022/10/01 05:32:55;;;;;;;11.27;7.90;;;;;;;16.50;68.02;95116.88;4173184;28;20195;-60
2022/10/01 05:34:56;;;;;;;21.58;12.32;;;;;;;16.49;67.91;95112.59;4168420;28;20528;-60
2022/10/01 05:36:59;;;;;;;22.75;10.65;;;;;;;16.54;68.15;95112.84;4171699;28;20056;-61
2022/10/01 05:39:01;;;;;;;15.10;8.00;;;;;;;16.59;67.87;95116.56;4173125;28;20055;-62
2022/10/01 05:41:03;;;;;;;15.40;8.93;;;;;;;16.38;67.87;95106.75;4172139;28;20053;-59
2022/10/01 05:43:05;;;;;;;16.15;8.48;;;;;;;16.40;68.25;95111.06;4171389;28;20052;-60
2022/10/01 05:45:08;;;;;;;21.65;8.52;;;;;;;16.43;68.22;95108.03;4177390;28;20088;-59
2022/10/01 05:47:15;;;;;;;13.57;8.95;;;;;;;16.45;68.09;95095.44;4176797;28;20048;-61
2022/10/01 05:49:16;;;;;;;17.75;8.45;;;;;;;16.40;68.49;95080.16;4178269;28;20084;-59
2022/10/01 05:51:18;;;;;;;13.20;7.70;;;;;;;16.34;68.31;95092.25;4166379;28;20049;-60
2022/10/01 05:53:21;;;;;;;12.88;8.00;;;;;;;16.43;68.33;95095.63;4175464;28;20122;-59
2022/10/01 05:55:23;;;;;;;13.20;8.10;;;;;;;16.61;68.11;95082.00;4178564;28;20406;-61
2022/10/01 05:57:25;;;;;;;16.25;8.30;;;;;;;16.81;67.82;95079.59;4178835;28;20695;-59
2022/10/01 05:59:26;;;;;;;13.52;7.72;;;;;;;16.94;67.10;95084.22;4178506;28;20464;-58
2022/10/01 06:01:32;;;;;;;12.45;8.23;;;;;;;17.11;66.99;95095.38;4176613;28;20041;-60
2022/10/01 06:03:34;;;;;;;21.42;7.95;;;;;;;17.20;66.16;95108.25;4175299;28;20497;-59
2022/10/01 06:05:37;;;;;;;13.68;7.93;;;;;;;17.25;65.64;95125.41;4169335;28;20132;-61
2022/10/01 06:07:39;;;;;;;14.38;8.45;;;;;;;17.38;65.40;95114.97;4177993;28;20519;-60
2022/10/01 06:09:40;;;;;;;12.90;8.40;;;;;;;17.36;65.26;95127.56;4170883;28;20049;-62
2022/10/01 06:11:42;;;;;;;12.93;7.95;;;;;;;17.47;65.66;95137.66;4171783;28;20069;-59
2022/10/01 06:13:44;;;;;;;14.75;7.90;;;;;;;16.74;66.96;95095.38;4166583;28;20441;-58
2022/10/01 06:15:46;;;;;;;9.23;7.20;;;;;;;16.33;68.48;95122.38;4166547;28;20140;-60
2022/10/01 06:17:47;;;;;;;23.00;9.77;;;;;;;16.24;68.72;95147.28;4169813;28;20053;-61
2022/10/01 06:19:50;;;;;;;14.40;8.45;;;;;;;16.57;68.68;95152.97;4178106;28;20045;-61
2022/10/01 06:21:52;;;;;;;14.23;9.10;;;;;;;16.76;67.21;95140.97;4172941;28;20084;-60
2022/10/01 06:23:53;;;;;;;15.98;8.80;;;;;;;16.65;67.43;95127.41;4170864;28;20147;-59
2022/10/01 06:25:58;;;;;;;21.13;10.15;;;;;;;16.83;67.13;95150.84;4176756;28;20057;-61
2022/10/01 06:28:00;;;;;;;15.50;9.18;;;;;;;16.83;66.31;95161.44;4175540;28;20049;-62
2022/10/01 06:30:04;;;;;;;19.20;9.63;;;;;;;16.90;66.84;95157.84;4169995;28;20091;-61
2022/10/01 06:32:06;;;;;;;16.42;9.93;;;;;;;17.04;67.01;95169.41;4167580;28;20132;-63
2022/10/01 06:34:08;;;;;;;21.17;9.38;;;;;;;17.27;66.82;95168.41;4168848;28;20049;-60
2022/10/01 06:36:10;;;;;;;16.25;9.70;;;;;;;17.43;65.64;95152.28;4171295;28;20131;-62
2022/10/01 06:38:12;;;;;;;13.60;9.45;;;;;;;17.57;65.45;95143.44;4170917;28;20045;-59
2022/10/01 06:40:14;;;;;;;18.63;10.07;;;;;;;17.60;65.02;95136.94;4177415;28;20496;-61
2022/10/01 06:42:15;;;;;;;17.83;8.70;;;;;;;17.67;65.20;95139.63;4164487;28;20144;-61
2022/10/01 06:44:19;;;;;;;12.93;9.48;;;;;;;17.80;64.41;95153.78;4178144;28;20665;-62
2022/10/01 06:46:21;;;;;;;14.90;9.52;;;;;;;17.98;64.25;95142.75;4176462;28;20084;-59
2022/10/01 06:48:22;;;;;;;14.00;9.32;;;;;;;17.97;64.15;95124.38;4177967;28;20356;-59
2022/10/01 06:50:25;;;;;;;20.15;10.57;;;;;;;18.12;64.09;95116.31;4177983;28;20464;-61
2022/10/01 06:54:47;;;;;;;18.60;10.43;;;;;;;17.99;63.52;95122.34;4178326;28;20055;-60
2022/10/01 06:56:48;;;;;;;14.65;9.63;;;;;;;17.92;64.32;95154.13;4164221;28;20149;-60
2022/10/01 06:58:50;;;;;;;14.68;8.95;;;;;;;18.00;63.87;95131.94;4176862;28;20060;-61
2022/10/01 07:00:57;;;;;;;15.90;10.10;;;;;;;17.69;64.10;95122.53;4175439;28;20135;-60
2022/10/01 07:02:59;;;;;;;13.88;9.32;;;;;;;17.54;64.46;95124.44;4164689;28;20486;-59
2022/10/01 07:05:01;;;;;;;14.15;9.93;;;;;;;17.61;64.57;95134.06;4176740;28;20148;-62
2022/10/01 07:07:03;;;;;;;15.90;9.32;;;;;;;17.88;64.62;95154.72;4176214;28;20136;-60
2022/10/01 07:09:04;;;;;;;19.85;10.07;;;;;;;18.13;63.59;95141.81;4177603;28;20082;-61
2022/10/01 07:11:06;;;;;;;22.05;10.10;;;;;;;18.39;62.79;95165.84;4177542;28;20080;-60
2022/10/01 07:13:19;;;;;;;14.90;9.07;;;;;;;18.61;61.72;95189.63;4168132;28;20558;-63
2022/10/01 07:15:24;;;;;;;16.70;8.52;;;;;;;18.86;61.51;95186.47;4172889;28;20061;-62
2022/10/01 07:17:26;;;;;;;16.55;8.95;;;;;;;19.06;60.01;95170.59;4177844;28;20137;-61
2022/10/01 07:19:27;;;;;;;24.88;8.52;;;;;;;19.18;59.78;95180.44;4178106;28;20557;-59
2022/10/01 07:21:29;;;;;;;16.45;7.70;;;;;;;19.37;59.42;95170.06;4176505;28;20049;-59
2022/10/01 07:23:31;;;;;;;19.58;9.25;;;;;;;19.43;58.66;95158.63;4177892;28;20053;-64
2022/10/01 07:25:33;;;;;;;18.25;8.90;;;;;;;19.34;58.42;95151.91;4168905;28;20147;-62
2022/10/01 07:27:35;;;;;;;13.38;8.63;;;;;;;19.36;58.75;95157.78;4177916;28;20049;-65
2022/10/01 07:29:37;;;;;;;10.37;7.43;;;;;;;19.56;58.54;95152.53;4171677;28;20111;-67
2022/10/01 07:31:39;;;;;;;19.20;8.07;;;;;;;19.75;58.23;95145.59;4175904;28;20302;-66
2022/10/01 07:33:40;;;;;;;13.02;7.50;;;;;;;19.68;56.55;95144.75;4177122;28;20071;-67
2022/10/01 07:35:42;;;;;;;13.93;6.95;;;;;;;19.84;56.92;95144.38;4165327;28;20050;-67
2022/10/01 07:37:45;;;;;;;13.18;7.10;;;;;;;19.98;56.76;95129.22;4176776;28;20048;-65
2022/10/01 07:39:46;;;;;;;10.32;6.15;;;;;;;20.10;55.74;95124.09;4176906;28;20049;-67
2022/10/01 07:41:50;;;;;;;13.35;6.57;;;;;;;20.24;55.65;95131.84;4164793;28;20570;-65
2022/10/01 07:43:51;;;;;;;;;;;;;;;20.36;55.40;95139.97;4177237;28;20083;-66
2022/10/01 07:45:56;;;;;;;13.20;5.45;;;;;;;20.49;55.06;95128.47;4175995;28;19921;-69
2022/10/01 07:48:00;;;;;;;9.15;5.57;;;;;;;20.34;53.58;95125.25;4178910;28;20055;-66
2022/10/01 07:50:03;;;;;;;10.45;5.53;;;;;;;20.30;53.86;95132.81;4179705;28;20045;-66
2022/10/01 07:52:05;;;;;;;12.50;5.85;;;;;;;20.39;54.54;95128.94;4180427;28;20515;-66
2022/10/01 07:54:13;;;;;;;9.82;6.35;;;;;;;20.50;55.12;95134.59;4179852;28;20098;-66
2022/10/01 07:56:15;;;;;;;14.00;6.18;;;;;;;20.54;55.31;95146.47;4179210;28;20084;-65
2022/10/01 07:58:17;;;;;;;8.82;5.45;;;;;;;20.53;55.67;95150.97;4180064;28;20133;-66
2022/10/01 08:00:20;;;;;;;11.88;5.78;;;;;;;20.52;55.37;95160.00;4178873;28;20049;-66
2022/10/01 08:02:21;;;;;;;11.20;5.65;;;;;;;20.42;55.51;95136.47;4171459;28;20529;-63
2022/10/01 08:06:46;;;;;;;15.07;5.97;;;;;;;20.22;56.48;95130.41;4174194;28;20040;-65
2022/10/01 08:08:47;;;;;;;;;;;;;;;20.19;55.71;95126.31;4178710;28;20216;-65
2022/10/01 08:10:49;;;;;;;13.23;6.38;;;;;;;20.17;56.51;95114.25;4167696;28;20007;-66
2022/10/01 08:12:51;;;;;;;14.07;6.13;;;;;;;20.18;56.38;95110.56;4170274;28;20154;-68
2022/10/01 08:14:53;;;;;;;18.50;5.72;;;;;;;20.19;56.51;95105.03;4170126;28;20049;-65
2022/10/01 08:16:55;;;;;;;13.50;5.18;;;;;;;19.92;56.55;95077.69;4176831;28;20485;-66
2022/10/01 08:18:57;;;;;;;11.30;5.93;;;;;;;19.87;56.92;95098.75;4180159;28;20136;-66
2022/10/01 08:21:00;;;;;;;10.95;5.32;;;;;;;19.83;57.18;95103.69;4179907;28;20510;-68
2022/10/01 08:23:04;;;;;;;13.43;5.65;;;;;;;19.44;57.63;95056.66;4178124;28;20135;-67
2022/10/01 08:25:06;;;;;;;14.18;6.30;;;;;;;19.47;58.39;95080.16;4167636;28;20095;-66
2022/10/01 08:27:07;;;;;;;9.95;5.97;;;;;;;19.51;58.28;95104.47;4171156;28;20518;-66
2022/10/01 08:29:09;;;;;;;10.93;6.10;;;;;;;19.53;58.22;95062.56;4175061;28;20132;-67
2022/10/01 08:31:17;;;;;;;7.60;5.82;;;;;;;19.03;59.27;95065.63;4175189;28;20053;-69
2022/10/01 08:33:18;;;;;;;11.73;5.65;;;;;;;19.16;59.43;95105.47;4168558;28;20052;-67
2022/10/01 08:35:22;;;;;;;11.02;6.00;;;;;;;19.29;59.41;95107.31;4176641;28;20053;-67
2022/10/01 08:37:26;;;;;;;8.17;5.83;;;;;;;19.43;59.04;95097.53;4176461;28;20172;-67
2022/10/01 08:39:27;;;;;;;13.00;5.82;;;;;;;19.34;58.43;95064.22;4167258;28;20174;-65
2022/10/01 08:41:40;;;;;;;9.30;6.32;;;;;;;19.29;58.72;95080.75;4170774;28;20117;-67
2022/10/01 08:43:42;;;;;;;8.27;5.75;;;;;;;19.41;59.28;95078.31;4166425;28;20049;-67
2022/10/01 08:45:47;;;;;;;11.30;5.97;;;;;;;19.51;58.66;95076.06;4176841;28;20052;-68
2022/10/01 08:48:11;;;;;;;9.20;5.45;;;;;;;19.54;57.16;95073.00;4178654;28;20045;-67
2022/10/01 08:50:22;;;;;;;9.55;6.35;;;;;;;19.40;57.96;95072.19;4179763;28;20136;-66
2022/10/01 08:52:25;;;;;;;12.27;6.47;;;;;;;19.49;58.21;95091.41;4164796;28;20509;-67
2022/10/01 08:54:36;;;;;;;;;;;;;;;19.60;58.02;95103.25;4169777;28;20722;-67
2022/10/01 08:56:43;;;;;;;10.13;5.97;;;;;;;19.68;57.39;95087.09;4179089;28;19963;-67
2022/10/01 08:58:47;;;;;;;12.75;7.10;;;;;;;19.44;57.61;95054.00;4177757;28;20060;-67
2022/10/01 09:00:49;;;;;;;13.98;6.90;;;;;;;19.48;57.96;95087.09;4177875;28;20111;-65
2022/10/01 09:02:51;;;;;;;14.95;6.25;;;;;;;19.48;58.08;95095.06;4168992;28;20088;-65
2022/10/01 09:04:56;;;;;;;16.98;7.10;;;;;;;19.37;57.77;95087.72;4164766;28;20128;-66
2022/10/01 09:07:35;;;;;;;14.88;8.13;;;;;;;19.22;58.69;95112.63;4171708;28;20509;-66
2022/10/01 09:09:44;;;;;;;13.48;7.07;;;;;;;19.28;58.71;95111.00;4166733;28;20061;-66
2022/10/01 09:12:23;;;;;;;11.32;6.28;;;;;;;19.40;58.46;95137.78;4171979;28;20123;-66
2022/10/01 09:15:07;;;;;;;10.27;6.18;;;;;;;19.50;58.31;95167.44;4171687;28;20081;-66
2022/10/01 09:17:16;;;;;;;11.63;6.63;;;;;;;19.56;57.73;95177.25;4173606;28;20067;-67
2022/10/01 09:19:53;;;;;;;9.93;6.13;;;;;;;19.63;57.80;95170.09;4177140;28;20109;-67
2022/10/01 09:22:02;;;;;;;15.43;6.00;;;;;;;19.66;57.81;95171.53;4170936;28;20049;-68
2022/10/01 09:24:14;;;;;;;17.45;9.35;;;;;;;19.55;59.09;95170.31;4168810;28;20445;-66
2022/10/01 09:26:15;;;;;;;13.65;7.15;;;;;;;19.54;58.65;95184.59;4175455;28;20045;-66
2022/10/01 09:28:22;;;;;;;13.25;7.38;;;;;;;19.52;60.50;95172.53;4165936;28;20087;-68
2022/10/01 09:30:25;;;;;;;12.60;7.30;;;;;;;19.51;60.74;95179.72;4177398;28;20052;-66
2022/10/01 09:32:32;;;;;;;16.67;7.03;;;;;;;19.34;60.74;95167.84;4176882;28;20045;-66
2022/10/01 09:34:39;;;;;;;15.30;8.68;;;;;;;19.18;61.50;95180.44;4174518;28;20049;-67
2022/10/01 09:37:02;;;;;;;14.80;8.82;;;;;;;19.23;61.28;95182.53;4167864;28;20145;-68
2022/10/01 09:39:20;;;;;;;16.00;8.68;;;;;;;19.24;62.33;95200.91;4178419;28;20491;-66
2022/10/01 09:41:22;;;;;;;20.55;8.80;;;;;;;19.20;62.60;95186.38;4167837;28;20132;-67
2022/10/01 09:43:36;;;;;;;15.35;9.35;;;;;;;19.06;62.16;95181.22;4170596;28;20057;-68
2022/10/01 09:45:38;;;;;;;17.00;9.93;;;;;;;19.13;62.32;95182.09;4171724;28;20139;-68